createdAt,value
2023-02-25T00:02:18.198Z,100.00
2023-02-25T00:04:47.193Z,100.00
2023-02-25T00:07:18.155Z,100.00
2023-02-25T00:09:48.150Z,100.00
2023-02-25T00:12:17.311Z,100.00
2023-02-25T00:14:46.004Z,100.00
2023-02-25T00:17:16.689Z,100.00
2023-02-25T00:19:45.847Z,100.00
2023-02-25T00:22:14.460Z,100.00
2023-02-25T00:24:43.497Z,100.00
2023-02-25T00:27:12.314Z,100.00
2023-02-25T00:29:42.093Z,100.00
2023-02-25T00:32:15.567Z,100.00
2023-02-25T00:34:47.503Z,100.00
2023-02-25T00:37:18.344Z,100.00
2023-02-25T00:39:47.113Z,100.00
2023-02-25T00:42:17.304Z,100.00
2023-02-25T00:44:47.348Z,100.00
2023-02-25T00:47:17.889Z,100.00
2023-02-25T00:49:50.841Z,100.00
2023-02-25T00:52:20.293Z,100.00
2023-02-25T00:54:49.115Z,100.00
2023-02-25T00:57:18.006Z,100.00
2023-02-25T00:59:46.476Z,100.00
2023-02-25T01:02:15.987Z,100.00
2023-02-25T01:04:44.783Z,100.00
2023-02-25T01:07:18.079Z,100.00
2023-02-25T01:09:47.825Z,100.00
2023-02-25T01:12:16.580Z,100.00
2023-02-25T01:14:45.577Z,100.00
2023-02-25T01:17:13.898Z,100.00
2023-02-25T01:19:45.819Z,100.00
2023-02-25T01:22:17.382Z,100.00
2023-02-25T01:24:47.720Z,100.00
2023-02-25T01:27:16.250Z,100.00
2023-02-25T01:29:45.482Z,100.00
2023-02-25T01:32:16.248Z,100.00
2023-02-25T01:34:45.597Z,100.00
2023-02-25T01:37:16.428Z,100.00
2023-02-25T01:39:45.656Z,100.00
2023-02-25T01:42:16.251Z,100.00
2023-02-25T01:45:25.064Z,100.00
2023-02-25T01:47:58.269Z,100.00
2023-02-25T01:50:30.645Z,100.00
2023-02-25T01:53:02.136Z,100.00
2023-02-25T01:55:30.626Z,100.00
2023-02-25T01:57:59.977Z,100.00
2023-02-25T02:00:28.909Z,100.00
2023-02-25T02:02:59.070Z,100.00
2023-02-25T02:05:39.243Z,100.00
2023-02-25T02:08:10.690Z,100.00
2023-02-25T02:10:40.512Z,100.00
2023-02-25T02:13:13.418Z,100.00
2023-02-25T02:15:49.605Z,100.00
2023-02-25T02:18:22.177Z,100.00
2023-02-25T02:21:02.989Z,100.00
2023-02-25T02:23:50.334Z,100.00
2023-02-25T02:26:39.627Z,100.00
2023-02-25T02:29:38.398Z,100.00
2023-02-25T02:32:18.372Z,100.00
2023-02-25T02:34:53.561Z,100.00
2023-02-25T02:37:35.389Z,100.00
2023-02-25T02:40:15.941Z,100.00
2023-02-25T02:42:49.736Z,100.00
2023-02-25T02:45:23.433Z,100.00
2023-02-25T02:47:56.205Z,100.00
2023-02-25T02:50:31.112Z,100.00
2023-02-25T02:53:05.739Z,100.00
2023-02-25T02:55:38.043Z,100.00
2023-02-25T02:58:10.717Z,100.00
2023-02-25T03:00:45.124Z,100.00
2023-02-25T03:03:19.006Z,100.00
2023-02-25T03:05:51.890Z,100.00
2023-02-25T03:08:24.421Z,100.00
2023-02-25T03:10:55.715Z,100.00
2023-02-25T03:13:24.408Z,100.00
2023-02-25T03:15:55.662Z,100.00
2023-02-25T03:18:39.123Z,100.00
2023-02-25T03:21:14.820Z,100.00
2023-02-25T03:23:49.482Z,100.00
2023-02-25T03:26:23.506Z,100.00
2023-02-25T03:28:55.582Z,100.00
2023-02-25T03:31:29.699Z,100.00
2023-02-25T03:34:07.068Z,100.00
2023-02-25T03:36:39.097Z,100.00
2023-02-25T03:39:12.742Z,100.00
2023-02-25T03:41:45.480Z,100.00
2023-02-25T03:44:17.542Z,100.00
2023-02-25T03:46:48.812Z,100.00
2023-02-25T03:49:30.577Z,100.00
2023-02-25T03:52:02.567Z,100.00
2023-02-25T03:54:33.368Z,100.00
2023-02-25T03:57:04.446Z,100.00
2023-02-25T03:59:33.533Z,100.00
2023-02-25T04:02:03.400Z,100.00
2023-02-25T04:04:34.989Z,100.00
2023-02-25T04:07:05.308Z,100.00
2023-02-25T04:09:34.700Z,100.00
2023-02-25T04:12:04.849Z,100.00
2023-02-25T04:14:33.397Z,100.00
2023-02-25T04:17:05.317Z,100.00
2023-02-25T04:19:37.772Z,100.00
2023-02-25T04:22:08.462Z,100.00
2023-02-25T04:24:37.757Z,100.00
2023-02-25T04:27:08.970Z,100.00
2023-02-25T04:29:38.824Z,100.00
2023-02-25T04:32:07.655Z,100.00
2023-02-25T04:34:39.427Z,100.00
2023-02-25T04:37:09.490Z,100.00
2023-02-25T04:39:39.630Z,100.00
2023-02-25T04:42:10.890Z,100.00
2023-02-25T04:44:40.856Z,100.00
2023-02-25T04:47:09.861Z,100.00
2023-02-25T04:49:46.437Z,100.00
2023-02-25T04:52:19.241Z,100.00
2023-02-25T04:54:48.735Z,100.00
2023-02-25T04:57:40.050Z,100.00
2023-02-25T05:00:16.102Z,100.00
2023-02-25T05:02:47.221Z,100.00
2023-02-25T05:05:18.704Z,100.00
2023-02-25T05:07:48.520Z,100.00
2023-02-25T05:10:19.848Z,100.00
2023-02-25T05:12:49.062Z,100.00
2023-02-25T05:15:22.315Z,100.00
2023-02-25T05:17:51.027Z,100.00
2023-02-25T05:20:23.354Z,100.00
2023-02-25T05:22:52.813Z,100.00
2023-02-25T05:25:26.900Z,100.00
2023-02-25T05:27:55.739Z,100.00
2023-02-25T05:30:28.762Z,100.00
2023-02-25T05:32:57.348Z,100.00
2023-02-25T05:35:32.695Z,100.00
2023-02-25T05:38:02.852Z,100.00
2023-02-25T05:40:36.935Z,100.00
2023-02-25T05:43:07.890Z,100.00
2023-02-25T05:45:38.052Z,100.00
2023-02-25T05:48:07.576Z,100.00
2023-02-25T05:50:41.945Z,100.00
2023-02-25T05:53:14.378Z,100.00
2023-02-25T05:55:47.257Z,100.00
2023-02-25T05:58:16.006Z,100.00
2023-02-25T06:00:47.389Z,100.00
2023-02-25T06:03:16.656Z,100.00
2023-02-25T06:06:15.785Z,100.00
2023-02-25T06:08:46.637Z,100.00
2023-02-25T06:11:19.546Z,100.00
2023-02-25T06:13:52.703Z,100.00
2023-02-25T06:16:22.844Z,100.00
2023-02-25T06:18:53.350Z,100.00
2023-02-25T06:21:26.661Z,100.00
2023-02-25T06:23:55.924Z,100.00
2023-02-25T06:26:24.736Z,100.00
2023-02-25T06:28:55.459Z,100.00
2023-02-25T06:31:27.131Z,100.00
2023-02-25T06:33:57.608Z,100.00
2023-02-25T06:36:31.637Z,100.00
2023-02-25T06:39:02.286Z,100.00
2023-02-25T06:41:31.390Z,100.00
2023-02-25T06:44:05.876Z,100.00
2023-02-25T06:46:34.965Z,100.00
2023-02-25T06:49:05.063Z,100.00
2023-02-25T06:51:35.621Z,100.00
2023-02-25T06:54:07.535Z,100.00
2023-02-25T06:56:35.997Z,100.00
2023-02-25T06:59:05.204Z,100.00
2023-02-25T07:01:35.218Z,100.00
2023-02-25T07:04:04.033Z,100.00
2023-02-25T07:06:34.029Z,100.00
2023-02-25T07:09:05.215Z,100.00
2023-02-25T07:11:36.518Z,100.00
2023-02-25T07:14:20.252Z,100.00
2023-02-25T07:16:49.696Z,100.00
2023-02-25T07:19:19.553Z,100.00
2023-02-25T07:21:50.162Z,100.00
2023-02-25T07:24:24.148Z,100.00
2023-02-25T07:26:54.229Z,100.00
2023-02-25T07:29:26.303Z,100.00
2023-02-25T07:31:58.163Z,100.00
2023-02-25T07:34:31.587Z,100.00
2023-02-25T07:37:08.849Z,100.00
2023-02-25T07:39:40.326Z,100.00
2023-02-25T07:42:11.033Z,100.00
2023-02-25T07:44:40.023Z,100.00
2023-02-25T07:47:09.528Z,100.00
2023-02-25T07:49:38.015Z,100.00
2023-02-25T07:52:07.894Z,100.00
2023-02-25T07:54:37.075Z,100.00
2023-02-25T07:57:08.602Z,100.00
2023-02-25T07:59:37.304Z,100.00
2023-02-25T08:02:10.402Z,100.00
2023-02-25T08:04:39.658Z,100.00
2023-02-25T08:07:10.043Z,100.00
2023-02-25T08:09:38.757Z,100.00
2023-02-25T08:12:13.256Z,100.00
2023-02-25T08:14:41.858Z,100.00
2023-02-25T08:17:15.188Z,100.00
2023-02-25T08:19:43.731Z,100.00
2023-02-25T08:22:13.332Z,100.00
2023-02-25T08:24:44.569Z,100.00
2023-02-25T08:27:15.262Z,100.00
2023-02-25T08:29:43.750Z,100.00
2023-02-25T08:32:14.295Z,100.00
2023-02-25T08:34:43.358Z,100.00
2023-02-25T08:37:13.811Z,100.00
2023-02-25T08:39:43.810Z,100.00
2023-02-25T08:42:25.444Z,100.00
2023-02-25T08:44:56.763Z,100.00
2023-02-25T08:47:26.578Z,100.00
2023-02-25T08:49:56.251Z,100.00
2023-02-25T08:52:25.709Z,100.00
2023-02-25T08:55:00.007Z,100.00
2023-02-25T08:57:49.643Z,100.00
2023-02-25T09:00:23.477Z,100.00
2023-02-25T09:03:03.542Z,100.00
2023-02-25T09:05:53.541Z,100.00
2023-02-25T09:11:41.158Z,100.00
2023-02-25T09:14:14.861Z,100.00
2023-02-25T09:16:46.642Z,100.00
2023-02-25T09:19:22.040Z,100.00
2023-02-25T09:21:52.262Z,100.00
2023-02-25T09:24:21.133Z,100.00
2023-02-25T09:26:52.638Z,100.00
2023-02-25T09:29:22.025Z,100.00
2023-02-25T09:31:54.506Z,100.00
2023-02-25T09:34:23.411Z,100.00
2023-02-25T09:36:54.302Z,100.00
2023-02-25T09:39:27.322Z,100.00
2023-02-25T09:42:01.142Z,100.00
2023-02-25T09:44:34.923Z,100.00
2023-02-25T09:47:28.513Z,100.00
2023-02-25T09:50:08.035Z,100.00
2023-02-25T09:52:43.449Z,100.00
2023-02-25T09:55:22.751Z,100.00
2023-02-25T09:57:59.556Z,100.00
2023-02-25T10:00:29.969Z,100.00
2023-02-25T10:03:09.059Z,100.00
2023-02-25T10:05:44.348Z,100.00
2023-02-25T10:08:19.632Z,100.00
2023-02-25T10:10:59.032Z,100.00
2023-02-25T10:13:36.917Z,100.00
2023-02-25T10:16:13.526Z,100.00
2023-02-25T10:19:01.887Z,100.00
2023-02-25T10:21:44.487Z,100.00
2023-02-25T10:24:25.729Z,100.00
2023-02-25T10:26:59.976Z,100.00
2023-02-25T10:29:35.092Z,100.00
2023-02-25T10:32:21.323Z,100.00
2023-02-25T10:34:55.441Z,100.00
2023-02-25T10:37:28.879Z,100.00
2023-02-25T10:40:03.447Z,100.00
2023-02-25T10:42:35.687Z,100.00
2023-02-25T10:45:09.404Z,100.00
2023-02-25T10:47:43.067Z,100.00
2023-02-25T10:50:19.951Z,100.00
2023-02-25T10:52:58.869Z,100.00
2023-02-25T10:55:40.802Z,100.00
2023-02-25T10:58:27.439Z,100.00
2023-02-25T11:01:01.233Z,100.00
2023-02-25T11:03:36.187Z,100.00
2023-02-25T11:06:23.265Z,100.00
2023-02-25T11:08:54.825Z,100.00
2023-02-25T11:11:28.255Z,100.00
2023-02-25T11:14:03.816Z,100.00
2023-02-25T11:16:35.245Z,100.00
2023-02-25T11:19:15.948Z,100.00
2023-02-25T11:21:46.290Z,100.00
2023-02-25T11:24:17.612Z,100.00
2023-02-25T11:26:48.454Z,100.00
2023-02-25T11:29:21.027Z,100.00
2023-02-25T11:31:58.025Z,100.00
2023-02-25T11:34:29.814Z,100.00
2023-02-25T11:37:16.669Z,100.00
2023-02-25T11:39:53.763Z,100.00
2023-02-25T11:42:25.611Z,100.00
2023-02-25T11:45:01.867Z,100.00
2023-02-25T11:47:32.807Z,100.00
2023-02-25T11:50:15.911Z,100.00
2023-02-25T11:52:50.421Z,100.00
2023-02-25T11:56:03.319Z,100.00
2023-02-25T11:58:44.609Z,100.00
2023-02-25T12:01:31.990Z,100.00
2023-02-25T12:04:49.099Z,100.00
2023-02-25T12:08:12.063Z,100.00
2023-02-25T12:11:30.502Z,100.00
2023-02-25T12:14:36.738Z,100.00
2023-02-25T12:17:57.905Z,100.00
2023-02-25T12:21:12.269Z,100.00
2023-02-25T12:24:32.772Z,100.00
2023-02-25T12:27:33.230Z,100.00
2023-02-25T12:30:21.212Z,100.00
2023-02-25T12:33:04.180Z,100.00
2023-02-25T12:35:57.960Z,100.00
2023-02-25T12:39:12.206Z,100.00
2023-02-25T12:41:49.264Z,100.00
2023-02-25T12:44:51.138Z,100.00
2023-02-25T12:50:52.869Z,100.00
2023-02-25T12:53:32.550Z,100.00
2023-02-25T12:56:26.306Z,100.00
2023-02-25T12:59:22.669Z,100.00
2023-02-25T13:02:02.177Z,100.00
2023-02-25T13:04:50.142Z,100.00
2023-02-25T13:07:54.214Z,100.00
2023-02-25T13:10:35.612Z,100.00
2023-02-25T13:13:26.755Z,100.00
2023-02-25T13:16:04.951Z,100.00
2023-02-25T13:18:42.747Z,100.00
2023-02-25T13:21:39.958Z,100.00
2023-02-25T13:24:20.584Z,99.64
2023-02-25T13:27:07.311Z,100.00
2023-02-25T13:30:05.977Z,100.00
2023-02-25T13:32:40.039Z,100.00
2023-02-25T13:35:26.988Z,100.00
2023-02-25T13:38:06.586Z,100.00
2023-02-25T13:40:51.960Z,100.00
2023-02-25T13:43:49.914Z,100.00
2023-02-25T13:46:37.258Z,100.00
2023-02-25T13:49:36.087Z,100.00
2023-02-25T13:52:23.644Z,100.00
2023-02-25T13:55:30.340Z,100.00
2023-02-25T13:58:25.001Z,100.00
2023-02-25T14:01:30.251Z,99.36
2023-02-25T14:04:21.888Z,100.00
2023-02-25T14:07:15.697Z,100.00
2023-02-25T14:09:51.495Z,100.00
2023-02-25T14:12:34.551Z,100.00
2023-02-25T14:15:21.592Z,100.00
2023-02-25T14:18:23.832Z,100.00
2023-02-25T14:21:03.031Z,100.00
2023-02-25T14:23:44.451Z,100.00
2023-02-25T14:26:25.370Z,100.00
2023-02-25T14:29:07.969Z,100.00
2023-02-25T14:31:54.482Z,100.00
2023-02-25T14:34:39.889Z,100.00
2023-02-25T14:37:40.226Z,86.96
2023-02-25T14:40:32.779Z,85.41
2023-02-25T14:43:33.197Z,84.55
2023-02-25T14:46:10.403Z,87.23
2023-02-25T14:48:46.115Z,85.37
2023-02-25T14:51:41.672Z,86.67
2023-02-25T14:54:38.592Z,87.21
2023-02-25T14:57:41.740Z,81.07
2023-02-25T15:00:51.643Z,89.33
2023-02-25T15:03:58.430Z,94.74
2023-02-25T15:06:48.367Z,96.72
2023-02-25T15:09:44.770Z,98.90
2023-02-25T15:12:43.175Z,93.23
2023-02-25T15:15:31.902Z,96.24
2023-02-25T15:18:28.556Z,89.18
2023-02-25T15:20:59.867Z,86.35
2023-02-25T15:23:50.657Z,86.05
2023-02-25T15:26:26.341Z,91.75
2023-02-25T15:28:56.007Z,90.47
2023-02-25T15:31:33.147Z,94.29
2023-02-25T15:34:41.448Z,91.05
2023-02-25T15:37:22.987Z,94.21
2023-02-25T15:39:56.240Z,93.66
2023-02-25T15:42:47.204Z,96.47
2023-02-25T15:45:39.735Z,93.78
2023-02-25T15:48:38.136Z,90.10
2023-02-25T15:51:11.840Z,94.85
2023-02-25T15:54:02.650Z,86.29
2023-02-25T15:56:50.423Z,87.34
2023-02-25T15:59:42.036Z,90.30
2023-02-25T16:02:41.660Z,87.85
2023-02-25T16:05:23.643Z,90.24
2023-02-25T16:08:03.926Z,95.38
2023-02-25T16:10:56.972Z,95.44
2023-02-25T16:13:31.288Z,99.36
2023-02-25T16:16:02.442Z,99.26
2023-02-25T16:18:36.945Z,100.00
2023-02-25T16:21:07.948Z,100.00
2023-02-25T16:23:41.784Z,100.00
2023-02-25T16:26:20.118Z,100.00
2023-02-25T16:28:55.953Z,100.00
2023-02-25T16:31:27.897Z,100.00
2023-02-25T16:33:59.753Z,100.00
2023-02-25T16:36:34.447Z,100.00
2023-02-25T16:39:06.910Z,100.00
2023-02-25T16:41:38.951Z,100.00
2023-02-25T16:44:08.211Z,100.00
2023-02-25T16:46:39.222Z,100.00
2023-02-25T16:49:11.286Z,100.00
2023-02-25T16:51:41.370Z,100.00
2023-02-25T16:54:11.828Z,100.00
2023-02-25T16:56:44.379Z,100.00
2023-02-25T16:59:18.890Z,100.00
2023-02-25T17:01:50.541Z,100.00
2023-02-25T17:04:20.982Z,100.00
2023-02-25T17:07:13.562Z,100.00
2023-02-25T17:09:46.828Z,100.00
2023-02-25T17:12:21.095Z,100.00
2023-02-25T17:14:52.588Z,100.00
2023-02-25T17:17:25.479Z,100.00
2023-02-25T17:19:54.510Z,100.00
2023-02-25T17:22:25.009Z,100.00
2023-02-25T17:25:00.334Z,100.00
2023-02-25T17:27:30.544Z,100.00
2023-02-25T17:30:07.219Z,100.00
2023-02-25T17:32:36.185Z,100.00
2023-02-25T17:35:06.233Z,100.00
2023-02-25T17:37:35.259Z,100.00
2023-02-25T17:40:04.726Z,100.00
2023-02-25T17:42:35.933Z,100.00
2023-02-25T17:45:07.431Z,100.00
2023-02-25T17:47:38.124Z,100.00
2023-02-25T17:50:22.220Z,100.00
2023-02-25T17:52:50.494Z,100.00
2023-02-25T17:55:26.956Z,100.00
2023-02-25T17:57:59.919Z,100.00
2023-02-25T18:00:32.928Z,100.00
2023-02-25T18:03:18.221Z,100.00
2023-02-25T18:05:52.733Z,100.00
2023-02-25T18:08:22.732Z,100.00
2023-02-25T18:10:59.271Z,100.00
2023-02-25T18:13:35.335Z,100.00
2023-02-25T18:16:30.486Z,100.00
2023-02-25T18:18:59.970Z,100.00
2023-02-25T18:21:30.581Z,100.00
2023-02-25T18:24:00.605Z,100.00
2023-02-25T18:26:30.556Z,100.00
2023-02-25T18:29:00.524Z,100.00
2023-02-25T18:31:29.233Z,100.00
2023-02-25T18:33:57.638Z,100.00
2023-02-25T18:36:28.993Z,100.00
2023-02-25T18:39:04.772Z,100.00
2023-02-25T18:41:35.544Z,100.00
2023-02-25T18:44:08.768Z,100.00
2023-02-25T18:46:37.409Z,100.00
2023-02-25T18:49:05.984Z,100.00
2023-02-25T18:51:36.711Z,100.00
2023-02-25T18:54:05.718Z,100.00
2023-02-25T18:56:34.550Z,100.00
2023-02-25T18:59:02.767Z,100.00
2023-02-25T19:01:35.073Z,100.00
2023-02-25T19:04:04.987Z,100.00
2023-02-25T19:06:34.657Z,100.00
2023-02-25T19:09:03.715Z,100.00
2023-02-25T19:11:36.876Z,100.00
2023-02-25T19:14:05.890Z,100.00
2023-02-25T19:16:38.211Z,100.00
2023-02-25T19:19:06.733Z,100.00
2023-02-25T19:21:35.233Z,100.00
2023-02-25T19:24:03.572Z,100.00
2023-02-25T19:26:31.917Z,100.00
2023-02-25T19:29:00.684Z,100.00
2023-02-25T19:31:30.159Z,100.00
2023-02-25T19:34:00.237Z,100.00
2023-02-25T19:36:30.231Z,100.00
2023-02-25T19:38:58.583Z,100.00
2023-02-25T19:41:27.222Z,100.00
2023-02-25T19:43:55.624Z,100.00
2023-02-25T19:46:24.283Z,100.00
2023-02-25T19:49:09.537Z,100.00
2023-02-25T19:51:38.709Z,100.00
2023-02-25T19:54:07.197Z,100.00
2023-02-25T19:56:36.004Z,100.00
2023-02-25T19:59:04.445Z,100.00
2023-02-25T20:01:33.547Z,100.00
2023-02-25T20:04:02.567Z,100.00
2023-02-25T20:06:44.756Z,100.00
2023-02-25T20:09:16.609Z,100.00
2023-02-25T20:11:46.610Z,100.00
2023-02-25T20:14:15.068Z,100.00
2023-02-25T20:16:43.529Z,100.00
2023-02-25T20:19:15.102Z,100.00
2023-02-25T20:21:47.713Z,100.00
2023-02-25T20:24:16.341Z,100.00
2023-02-25T20:26:44.954Z,100.00
2023-02-25T20:29:13.364Z,100.00
2023-02-25T20:31:44.289Z,100.00
2023-02-25T20:34:18.009Z,100.00
2023-02-25T20:36:55.080Z,100.00
2023-02-25T20:39:43.883Z,100.00
2023-02-25T20:42:14.303Z,100.00
2023-02-25T20:44:43.005Z,100.00
2023-02-25T20:47:17.909Z,100.00
2023-02-25T20:49:46.785Z,100.00
2023-02-25T20:52:19.013Z,100.00
2023-02-25T20:54:49.876Z,100.00
2023-02-25T20:57:21.532Z,100.00
2023-02-25T20:59:50.886Z,100.00
2023-02-25T21:02:19.648Z,100.00
2023-02-25T21:04:48.163Z,100.00
2023-02-25T21:07:19.967Z,100.00
2023-02-25T21:09:48.345Z,100.00
2023-02-25T21:12:16.662Z,100.00
2023-02-25T21:14:45.165Z,100.00
2023-02-25T21:17:14.638Z,100.00
2023-02-25T21:19:44.054Z,100.00
2023-02-25T21:22:12.563Z,100.00
2023-02-25T21:24:42.694Z,100.00
2023-02-25T21:27:12.338Z,100.00
2023-02-25T21:29:42.220Z,100.00
2023-02-25T21:32:10.678Z,100.00
2023-02-25T21:34:40.036Z,100.00
2023-02-25T21:37:08.355Z,100.00
2023-02-25T21:39:37.029Z,100.00
2023-02-25T21:42:07.148Z,100.00
2023-02-25T21:44:35.728Z,100.00
2023-02-25T21:47:04.034Z,100.00
2023-02-25T21:49:32.752Z,100.00
2023-02-25T21:52:01.661Z,100.00
2023-02-25T21:54:30.036Z,100.00
2023-02-25T21:57:00.458Z,100.00
2023-02-25T21:59:30.889Z,100.00
2023-02-25T22:01:59.407Z,100.00
2023-02-25T22:04:28.534Z,100.00
2023-02-25T22:06:57.329Z,100.00
2023-02-25T22:09:26.047Z,100.00
2023-02-25T22:11:55.591Z,100.00
2023-02-25T22:14:26.460Z,100.00
2023-02-25T22:16:56.461Z,100.00
2023-02-25T22:19:25.460Z,100.00
2023-02-25T22:21:54.294Z,100.00
2023-02-25T22:24:22.864Z,100.00
2023-02-25T22:26:52.818Z,100.00
2023-02-25T22:29:21.472Z,100.00
2023-02-25T22:31:50.235Z,100.00
2023-02-25T22:34:20.017Z,100.00
2023-02-25T22:36:48.575Z,100.00
2023-02-25T22:39:17.257Z,100.00
2023-02-25T22:41:46.388Z,100.00
2023-02-25T22:44:14.704Z,100.00
2023-02-25T22:46:43.150Z,100.00
2023-02-25T22:49:12.853Z,100.00
2023-02-25T22:51:45.005Z,100.00
2023-02-25T22:54:14.986Z,100.00
2023-02-25T22:56:44.113Z,100.00
2023-02-25T22:59:12.990Z,100.00
2023-02-25T23:01:42.780Z,100.00
2023-02-25T23:04:11.067Z,100.00
2023-02-25T23:06:46.313Z,100.00
2023-02-25T23:09:16.809Z,100.00
2023-02-25T23:12:00.088Z,100.00
2023-02-25T23:14:29.377Z,100.00
2023-02-25T23:16:57.860Z,100.00
2023-02-25T23:19:26.226Z,100.00
2023-02-25T23:21:57.480Z,100.00
2023-02-25T23:24:37.414Z,100.00
2023-02-25T23:27:06.035Z,100.00
2023-02-25T23:29:35.148Z,100.00
2023-02-25T23:32:06.140Z,100.00
2023-02-25T23:39:48.135Z,100.00
2023-02-25T23:42:16.958Z,100.00
2023-02-25T23:44:47.229Z,100.00
2023-02-25T23:47:17.905Z,100.00
2023-02-25T23:49:46.790Z,100.00
2023-02-25T23:52:16.558Z,100.00
2023-02-25T23:54:49.430Z,100.00
2023-02-25T23:57:19.063Z,100.00
2023-02-25T23:59:52.158Z,100.00
